Time;durP1;ratioP1;P1;durP2;ratioP2;P2;SDS_P1;SDS_P2;PMS_P1;PMS_P2;Temp;Humidity;BMP_temperature;BMP_pressure;BME280_temperature;BME280_humidity;BME280_pressure;Samples;Min_cycle;Max_cycle;Signal;HPM_P1;HPM_P2
2022/12/16 00:01:12;;;;;;;2.05;1.33;;;-1.60;99.90;;;;;;5042928;28;20423;-80
2022/12/16 00:03:40;;;;;;;2.13;1.30;;;-1.60;99.90;;;;;;5058553;28;20052;-79
2022/12/16 00:06:07;;;;;;;2.40;1.77;;;-1.60;99.90;;;;;;5026080;28;20048;-79
2022/12/16 00:08:35;;;;;;;1.90;1.35;;;-1.60;99.90;;;;;;5025818;28;20478;-79
2022/12/16 00:11:03;;;;;;;2.55;1.30;;;-1.60;99.90;;;;;;5026581;28;20506;-79
2022/12/16 00:13:30;;;;;;;2.08;1.60;;;-1.70;99.90;;;;;;5041759;28;20056;-79
2022/12/16 00:15:58;;;;;;;3.88;1.90;;;-1.70;99.90;;;;;;5042813;28;20132;-79
2022/12/16 00:18:24;;;;;;;2.47;1.50;;;-1.70;99.90;;;;;;5029438;28;20050;-80
2022/12/16 00:20:52;;;;;;;2.50;1.60;;;-1.70;99.90;;;;;;5045922;28;20056;-79
2022/12/16 00:23:20;;;;;;;1.23;1.13;;;-1.70;99.90;;;;;;5029808;28;20488;-79
2022/12/16 00:25:47;;;;;;;3.13;1.73;;;-1.70;99.90;;;;;;5046533;28;20048;-80
2022/12/16 00:28:14;;;;;;;5.38;2.95;;;-1.70;99.90;;;;;;5045939;28;20070;-79
2022/12/16 00:30:41;;;;;;;3.00;1.92;;;-1.70;99.90;;;;;;5029889;28;20070;-80
2022/12/16 00:33:08;;;;;;;3.20;1.90;;;-1.70;99.90;;;;;;5029224;28;20040;-79
2022/12/16 00:35:35;;;;;;;3.35;1.67;;;-1.60;99.90;;;;;;5046524;28;20445;-79
2022/12/16 00:38:01;;;;;;;3.25;1.70;;;-1.60;99.90;;;;;;5062250;28;20055;-80
2022/12/16 00:40:28;;;;;;;2.03;1.60;;;-1.60;99.90;;;;;;5062885;28;20368;-79
2022/12/16 00:42:58;;;;;;;2.10;1.52;;;-1.60;99.90;;;;;;5028840;28;20459;-80
2022/12/16 00:45:24;;;;;;;4.65;2.05;;;-1.60;99.90;;;;;;5042480;28;20063;-80
2022/12/16 00:47:51;;;;;;;3.20;2.63;;;-1.60;99.90;;;;;;5062352;28;20060;-79
2022/12/16 00:50:19;;;;;;;2.75;2.03;;;-1.60;99.90;;;;;;5062916;28;20044;-79
2022/12/16 00:52:46;;;;;;;2.83;1.95;;;-1.60;99.90;;;;;;5045781;28;20510;-80
2022/12/16 00:55:14;;;;;;;2.88;2.00;;;-1.60;99.90;;;;;;5062020;28;20058;-79
2022/12/16 00:57:40;;;;;;;2.10;1.58;;;-1.60;99.90;;;;;;5045361;28;20434;-79
2022/12/16 01:00:11;;;;;;;1.85;1.38;;;-1.60;99.90;;;;;;5045675;28;20586;-80
2022/12/16 01:02:39;;;;;;;2.80;1.80;;;-1.60;99.90;;;;;;5046056;28;20325;-79
2022/12/16 01:05:07;;;;;;;3.22;1.90;;;-1.70;99.90;;;;;;5058826;28;20044;-79
2022/12/16 01:07:34;;;;;;;2.03;1.35;;;-1.80;99.90;;;;;;5061986;28;20041;-80
2022/12/16 01:10:01;;;;;;;2.92;1.80;;;-1.90;99.90;;;;;;5029202;28;20166;-79
2022/12/16 01:12:28;;;;;;;1.58;1.48;;;-2.00;99.90;;;;;;5061805;28;20051;-80
2022/12/16 01:14:55;;;;;;;1.90;1.40;;;-2.00;99.90;;;;;;5023971;28;20049;-78
2022/12/16 01:17:24;;;;;;;1.88;1.38;;;-2.10;99.90;;;;;;5029210;28;20362;-78
2022/12/16 01:19:52;;;;;;;2.22;1.50;;;-2.10;99.90;;;;;;5045240;28;20143;-78
2022/12/16 01:22:20;;;;;;;3.95;1.90;;;-2.20;99.90;;;;;;5045146;28;20044;-77
2022/12/16 01:24:46;;;;;;;3.10;1.90;;;-2.20;99.90;;;;;;5061830;28;20048;-78
2022/12/16 01:27:14;;;;;;;2.58;1.80;;;-2.20;99.90;;;;;;5063203;28;20048;-78
2022/12/16 01:29:41;;;;;;;2.85;1.65;;;-2.30;99.90;;;;;;5028053;28;20045;-78
2022/12/16 01:32:11;;;;;;;2.13;1.85;;;-2.30;99.90;;;;;;5045179;28;20047;-78
2022/12/16 01:34:38;;;;;;;2.50;1.50;;;-2.30;99.90;;;;;;5044781;28;20044;-78
2022/12/16 01:37:05;;;;;;;2.90;1.88;;;-2.40;99.90;;;;;;5029040;28;20045;-78
2022/12/16 01:39:31;;;;;;;3.53;1.77;;;-2.50;99.90;;;;;;5044497;28;20567;-78
2022/12/16 01:41:58;;;;;;;2.92;2.17;;;-2.60;99.90;;;;;;5063046;28;20128;-78
2022/12/16 01:44:25;;;;;;;1.85;1.25;;;-2.60;99.90;;;;;;5061023;28;20110;-78
2022/12/16 01:46:58;;;;;;;2.33;1.48;;;-2.60;99.90;;;;;;5044894;28;20391;-78
2022/12/16 01:49:26;;;;;;;2.05;1.40;;;-2.70;99.90;;;;;;5028580;28;20083;-78
2022/12/16 01:51:54;;;;;;;1.63;1.15;;;-2.70;99.90;;;;;;5044995;28;20058;-78
2022/12/16 01:54:33;;;;;;;2.53;1.60;;;-2.80;99.90;;;;;;5027776;28;20274;-78
2022/12/16 01:57:02;;;;;;;2.40;1.70;;;-2.80;99.90;;;;;;5046182;28;20041;-79
2022/12/16 01:59:29;;;;;;;2.00;1.50;;;-2.80;99.90;;;;;;5044764;28;20048;-78
2022/12/16 02:01:56;;;;;;;2.70;1.67;;;-2.90;99.90;;;;;;5057025;28;20037;-79
2022/12/16 02:04:23;;;;;;;1.92;1.30;;;-2.90;99.90;;;;;;5060402;28;20044;-78
2022/12/16 02:06:50;;;;;;;2.30;1.75;;;-2.90;99.90;;;;;;5044169;28;20048;-77
2022/12/16 02:09:17;;;;;;;2.40;1.35;;;-3.00;99.90;;;;;;5028153;28;20047;-78
2022/12/16 02:12:17;;;;;;;2.08;1.40;;;-3.00;99.90;;;;;;5028146;28;20055;-78
2022/12/16 02:15:10;;;;;;;3.42;1.60;;;-3.00;99.90;;;;;;5059903;28;20052;-79
2022/12/16 02:17:51;;;;;;;2.83;1.75;;;-3.00;99.90;;;;;;5061875;28;20171;-78
2022/12/16 02:20:26;;;;;;;2.17;1.55;;;-3.10;99.90;;;;;;5061275;28;20482;-78
2022/12/16 02:23:02;;;;;;;2.20;1.55;;;-3.10;99.90;;;;;;5061546;28;20075;-78
2022/12/16 02:25:52;;;;;;;2.67;1.55;;;-3.10;99.90;;;;;;5061983;28;20053;-79
2022/12/16 02:28:57;;;;;;;2.67;1.63;;;-3.20;99.90;;;;;;5060568;28;20041;-78
2022/12/16 02:31:49;;;;;;;2.10;1.40;;;-3.20;99.90;;;;;;5055795;28;20468;-78
2022/12/16 02:34:23;;;;;;;2.00;1.20;;;-3.20;99.90;;;;;;5059144;28;20056;-78
2022/12/16 02:37:04;;;;;;;2.40;1.38;;;-3.30;99.90;;;;;;5062579;28;20131;-78
2022/12/16 02:39:37;;;;;;;2.42;1.55;;;-3.30;99.90;;;;;;5061367;28;20045;-79
2022/12/16 02:42:20;;;;;;;4.03;1.60;;;-3.40;99.90;;;;;;5062545;28;20056;-78
2022/12/16 02:45:10;;;;;;;3.17;2.00;;;-3.40;99.90;;;;;;5061456;28;20053;-78
2022/12/16 02:47:37;;;;;;;3.50;1.50;;;-3.50;99.90;;;;;;5063966;28;20040;-78
2022/12/16 02:50:05;;;;;;;5.82;2.58;;;-3.50;99.90;;;;;;5032513;28;20044;-78
2022/12/16 02:52:32;;;;;;;3.88;2.40;;;-3.50;99.90;;;;;;5048528;28;20091;-78
2022/12/16 02:55:01;;;;;;;3.92;2.65;;;-3.60;99.90;;;;;;5047103;28;20058;-78
2022/12/16 02:57:46;;;;;;;3.67;2.00;;;-3.60;99.90;;;;;;5048388;28;20127;-78
2022/12/16 03:00:17;;;;;;;4.85;3.05;;;-3.60;99.90;;;;;;5064952;28;20623;-78
2022/12/16 03:02:51;;;;;;;4.10;2.10;;;-3.60;99.90;;;;;;5063597;28;20135;-78
2022/12/16 03:05:39;;;;;;;3.47;1.70;;;-3.70;99.90;;;;;;5048176;28;20045;-79
2022/12/16 03:08:25;;;;;;;5.38;3.75;;;-3.70;99.90;;;;;;5043138;28;20135;-78
2022/12/16 03:10:55;;;;;;;3.65;1.92;;;-3.70;99.90;;;;;;5044657;28;20621;-78
2022/12/16 03:13:21;;;;;;;2.83;1.73;;;-3.70;99.90;;;;;;5046719;28;20044;-78
2022/12/16 03:15:49;;;;;;;3.43;1.80;;;-3.70;99.90;;;;;;5047128;28;20699;-78
2022/12/16 03:18:15;;;;;;;2.72;1.92;;;-3.80;99.90;;;;;;5063809;28;20036;-79
2022/12/16 03:20:54;;;;;;;2.55;1.98;;;-3.90;99.90;;;;;;5045119;28;20045;-78
2022/12/16 03:23:25;;;;;;;2.97;1.50;;;-3.90;99.90;;;;;;5046539;28;20095;-78
2022/12/16 03:25:54;;;;;;;3.08;1.65;;;-3.90;99.90;;;;;;5048181;28;20415;-78
2022/12/16 03:28:38;;;;;;;2.22;1.50;;;-3.90;99.90;;;;;;5046580;28;20143;-78
2022/12/16 03:31:23;;;;;;;1.70;1.27;;;-3.90;99.90;;;;;;5062781;28;20064;-78
2022/12/16 03:34:05;;;;;;;2.22;1.50;;;-3.90;99.90;;;;;;5064192;28;20333;-79
2022/12/16 03:36:33;;;;;;;1.70;1.30;;;-3.90;99.90;;;;;;5063670;28;20344;-78
2022/12/16 03:39:00;;;;;;;2.23;1.20;;;-4.00;99.90;;;;;;5063249;28;20052;-78
2022/12/16 03:41:27;;;;;;;2.30;1.47;;;-4.00;99.90;;;;;;5047236;28;20549;-78
2022/12/16 03:43:54;;;;;;;2.45;1.48;;;-4.00;99.90;;;;;;5026330;28;20051;-78
2022/12/16 03:46:21;;;;;;;3.28;1.75;;;-4.00;99.90;;;;;;5063228;28;20037;-78
2022/12/16 03:48:49;;;;;;;2.03;1.52;;;-4.10;99.90;;;;;;5045101;28;20140;-77
2022/12/16 03:51:17;;;;;;;2.38;1.50;;;-4.10;99.90;;;;;;5044087;28;20380;-78
2022/12/16 03:53:44;;;;;;;3.95;1.50;;;-4.10;99.90;;;;;;5062279;28;20540;-78
2022/12/16 03:56:11;;;;;;;2.55;1.70;;;-4.10;99.90;;;;;;5063723;28;20262;-78
2022/12/16 03:58:39;;;;;;;3.17;1.50;;;-4.20;99.90;;;;;;5062403;28;20074;-77
2022/12/16 04:01:08;;;;;;;2.03;1.43;;;-4.20;99.90;;;;;;5044712;28;20048;-78
2022/12/16 04:03:35;;;;;;;3.10;1.37;;;-4.20;99.90;;;;;;5062875;28;20056;-77
2022/12/16 04:06:03;;;;;;;3.47;1.47;;;-4.30;99.90;;;;;;5046551;28;20456;-77
2022/12/16 04:08:30;;;;;;;2.93;1.50;;;-4.30;99.90;;;;;;5046178;28;20056;-77
2022/12/16 04:25:24;;;;;;;1.57;1.23;;;-4.30;99.90;;;;;;5046523;28;20144;-78
2022/12/16 04:27:51;;;;;;;3.20;1.90;;;-4.40;99.90;;;;;;5058287;28;20056;-78
2022/12/16 04:30:19;;;;;;;2.10;1.50;;;-4.40;99.90;;;;;;5059366;28;20072;-78
